Time;durP1;ratioP1;P1;durP2;ratioP2;P2;SDS_P1;SDS_P2;PMS_P1;PMS_P2;Temp;Humidity;BMP_temperature;BMP_pressure;BME280_temperature;BME280_humidity;BME280_pressure;Samples;Min_cycle;Max_cycle;Signal;HPM_P1;HPM_P2
2024/01/03 00:02:28;;;;;;;0.90;0.90;;;;;;;;;;6084201;23;20254;-92
2024/01/03 00:05:37;;;;;;;0.70;0.70;;;;;;;;;;6086552;23;20159;-92
2024/01/03 00:08:43;;;;;;;0.83;0.77;;;;;;;;;;6086478;23;20266;-92
2024/01/03 00:11:48;;;;;;;1.10;0.93;;;;;;;;;;6085250;23;20182;-93
2024/01/03 00:14:54;;;;;;;0.70;0.70;;;;;;;;;;6085468;23;20233;-93
2024/01/03 00:17:59;;;;;;;4.40;1.63;;;;;;;;;;6085776;23;20163;-93
2024/01/03 00:21:07;;;;;;;2.23;1.50;;;;;;;;;;6085004;23;20171;-93
2024/01/03 00:24:14;;;;;;;1.07;0.90;;;;;;;;;;6085516;23;20179;-94
2024/01/03 00:27:20;;;;;;;1.47;0.90;;;;;;;;;;6085051;23;20198;-90
2024/01/03 00:30:26;;;;;;;1.70;1.27;;;;;;;;;;6084565;23;20219;-93
2024/01/03 00:33:32;;;;;;;1.03;1.00;;;;;;;;;;6086215;23;20154;-92
2024/01/03 00:36:39;;;;;;;0.50;0.50;;;;;;;;;;6101008;23;20166;-92
2024/01/03 00:39:45;;;;;;;2.90;0.97;;;;;;;;;;6084761;23;20170;-91
2024/01/03 00:42:50;;;;;;;0.50;0.50;;;;;;;;;;6084913;23;20171;-93
2024/01/03 00:45:55;;;;;;;2.90;1.40;;;;;;;;;;6101891;23;20174;-91
2024/01/03 00:49:01;;;;;;;0.80;0.80;;;;;;;;;;6087836;23;20229;-92
2024/01/03 00:52:09;;;;;;;0.70;0.70;;;;;;;;;;6086426;23;20242;-94
2024/01/03 00:55:14;;;;;;;0.93;0.80;;;;;;;;;;6086331;23;20627;-93
2024/01/03 00:58:20;;;;;;;1.40;0.70;;;;;;;;;;6085275;23;20215;-91
2024/01/03 01:01:26;;;;;;;0.77;0.77;;;;;;;;;;6085749;23;20179;-91
2024/01/03 01:04:32;;;;;;;1.50;0.97;;;;;;;;;;6086301;23;20157;-93
2024/01/03 01:07:40;;;;;;;0.70;0.70;;;;;;;;;;6086021;23;20199;-92
2024/01/03 01:10:46;;;;;;;0.70;0.70;;;;;;;;;;6086555;23;20271;-93
2024/01/03 01:13:51;;;;;;;1.10;0.80;;;;;;;;;;6084656;23;20167;-90
2024/01/03 01:16:58;;;;;;;1.17;1.17;;;;;;;;;;6085941;23;20146;-93
2024/01/03 01:20:04;;;;;;;0.53;0.53;;;;;;;;;;6085146;23;20171;-91
2024/01/03 01:23:12;;;;;;;1.50;1.23;;;;;;;;;;6084591;23;20159;-91
2024/01/03 01:26:17;;;;;;;0.97;0.90;;;;;;;;;;6085422;23;20215;-94
2024/01/03 01:29:24;;;;;;;0.93;0.93;;;;;;;;;;6084868;23;20150;-94
2024/01/03 01:32:30;;;;;;;1.47;1.00;;;;;;;;;;6085903;23;20196;-92
2024/01/03 01:35:35;;;;;;;1.23;0.90;;;;;;;;;;6084998;23;20170;-94
2024/01/03 01:38:43;;;;;;;0.83;0.77;;;;;;;;;;6087302;23;20200;-92
2024/01/03 01:41:49;;;;;;;2.20;1.97;;;;;;;;;;6085208;23;20174;-91
2024/01/03 01:44:54;;;;;;;0.60;0.60;;;;;;;;;;6084581;23;20171;-93
2024/01/03 01:48:00;;;;;;;0.60;0.60;;;;;;;;;;6102482;23;20178;-91
2024/01/03 01:51:06;;;;;;;0.50;0.50;;;;;;;;;;6084462;23;20196;-92
2024/01/03 01:54:15;;;;;;;1.70;1.10;;;;;;;;;;6086348;23;20154;-94
2024/01/03 01:57:20;;;;;;;1.07;0.67;;;;;;;;;;6084279;23;20218;-91
2024/01/03 02:00:26;;;;;;;0.67;0.67;;;;;;;;;;6084669;23;20257;-94
2024/01/03 02:03:31;;;;;;;0.83;0.83;;;;;;;;;;6097107;23;21281;-93
2024/01/03 02:06:37;;;;;;;0.70;0.63;;;;;;;;;;6096250;23;20214;-94
2024/01/03 02:09:44;;;;;;;1.23;1.13;;;;;;;;;;6096739;23;20158;-91
2024/01/03 02:12:49;;;;;;;1.30;1.20;;;;;;;;;;6097815;23;20234;-93
2024/01/03 02:15:55;;;;;;;0.50;0.50;;;;;;;;;;6096987;23;20154;-94
2024/01/03 02:19:04;;;;;;;1.07;0.60;;;;;;;;;;6096819;23;20170;-93
2024/01/03 02:22:15;;;;;;;1.17;0.90;;;;;;;;;;6097694;23;20688;-93
2024/01/03 02:25:22;;;;;;;0.87;0.80;;;;;;;;;;6096660;23;20153;-93
2024/01/03 02:28:27;;;;;;;0.30;0.30;;;;;;;;;;6097255;23;20185;-93
2024/01/03 02:31:32;;;;;;;0.50;0.50;;;;;;;;;;6096245;23;20625;-92
2024/01/03 02:34:38;;;;;;;0.30;0.30;;;;;;;;;;6097038;23;20567;-92
2024/01/03 02:37:44;;;;;;;0.30;0.30;;;;;;;;;;6098040;23;20178;-93
2024/01/03 02:40:51;;;;;;;0.32;0.32;;;;;;;;;;6098133;23;20218;-92
2024/01/03 02:43:58;;;;;;;0.30;0.30;;;;;;;;;;6099338;23;20149;-95
2024/01/03 02:47:03;;;;;;;0.30;0.30;;;;;;;;;;6095751;23;20214;-90
2024/01/03 02:50:09;;;;;;;0.30;0.30;;;;;;;;;;6097251;23;20174;-93
2024/01/03 02:53:15;;;;;;;0.30;0.30;;;;;;;;;;6097765;23;20169;-94
2024/01/03 02:56:21;;;;;;;0.20;0.20;;;;;;;;;;6094641;23;20538;-93
2024/01/03 02:59:27;;;;;;;0.40;0.40;;;;;;;;;;6096208;23;20153;-93
2024/01/03 03:02:32;;;;;;;0.30;0.30;;;;;;;;;;6096125;23;20189;-92
2024/01/03 03:05:37;;;;;;;0.57;0.50;;;;;;;;;;6096550;23;20149;-93
2024/01/03 03:08:44;;;;;;;0.30;0.30;;;;;;;;;;6097553;23;20202;-92
2024/01/03 03:11:49;;;;;;;0.30;0.30;;;;;;;;;;6096366;23;20166;-92
2024/01/03 03:14:54;;;;;;;0.30;0.30;;;;;;;;;;6097598;23;20161;-93
2024/01/03 03:17:59;;;;;;;0.30;0.30;;;;;;;;;;6113916;23;20185;-91
2024/01/03 03:21:06;;;;;;;0.28;0.28;;;;;;;;;;6097559;23;20178;-94
2024/01/03 03:24:12;;;;;;;0.20;0.20;;;;;;;;;;6097287;23;20173;-93
2024/01/03 03:27:18;;;;;;;0.20;0.20;;;;;;;;;;6098216;23;20182;-92
2024/01/03 03:30:23;;;;;;;0.30;0.30;;;;;;;;;;6097357;23;20173;-93
2024/01/03 03:33:29;;;;;;;0.25;0.25;;;;;;;;;;6096753;23;20219;-93
2024/01/03 03:36:35;;;;;;;0.28;0.28;;;;;;;;;;6096961;23;20161;-93
2024/01/03 03:39:41;;;;;;;0.30;0.30;;;;;;;;;;6097051;23;20491;-92
2024/01/03 03:42:47;;;;;;;0.30;0.30;;;;;;;;;;6097150;23;20182;-93
2024/01/03 03:45:52;;;;;;;0.30;0.30;;;;;;;;;;6096127;23;20170;-93
2024/01/03 03:48:57;;;;;;;0.30;0.30;;;;;;;;;;6097056;23;20181;-93
2024/01/03 03:52:06;;;;;;;0.30;0.30;;;;;;;;;;6097998;23;20177;-92
2024/01/03 03:55:13;;;;;;;0.25;0.25;;;;;;;;;;6096491;23;20210;-92
2024/01/03 03:58:18;;;;;;;0.20;0.20;;;;;;;;;;6097293;23;20202;-93
2024/01/03 04:01:24;;;;;;;0.32;0.32;;;;;;;;;;6096080;23;20206;-94
2024/01/03 04:04:29;;;;;;;0.30;0.30;;;;;;;;;;6097997;23;20163;-93
2024/01/03 04:07:34;;;;;;;0.30;0.30;;;;;;;;;;6096499;23;20174;-91
2024/01/03 04:10:41;;;;;;;0.30;0.30;;;;;;;;;;6097629;23;20154;-92
2024/01/03 04:13:47;;;;;;;0.30;0.30;;;;;;;;;;6096767;23;20210;-92
2024/01/03 04:16:52;;;;;;;0.30;0.30;;;;;;;;;;6097587;23;20174;-93
2024/01/03 04:19:58;;;;;;;0.38;0.38;;;;;;;;;;6096691;23;20225;-92
2024/01/03 04:23:04;;;;;;;0.30;0.30;;;;;;;;;;6098659;23;20174;-92
2024/01/03 04:26:11;;;;;;;0.20;0.20;;;;;;;;;;6097144;23;20222;-94
2024/01/03 04:29:16;;;;;;;0.30;0.30;;;;;;;;;;6097206;23;20274;-93
2024/01/03 04:32:21;;;;;;;0.30;0.30;;;;;;;;;;6098108;23;20492;-93
2024/01/03 04:35:26;;;;;;;0.22;0.22;;;;;;;;;;6096787;23;20231;-93
2024/01/03 04:38:32;;;;;;;0.85;0.85;;;;;;;;;;6096944;23;20158;-92
2024/01/03 04:41:39;;;;;;;0.30;0.30;;;;;;;;;;6095997;23;20219;-92
2024/01/03 04:44:45;;;;;;;0.40;0.40;;;;;;;;;;6094904;23;20171;-93
2024/01/03 04:47:50;;;;;;;0.30;0.30;;;;;;;;;;6095739;23;20169;-92
2024/01/03 04:50:55;;;;;;;0.30;0.30;;;;;;;;;;6113963;23;20165;-95
2024/01/03 04:54:01;;;;;;;0.30;0.30;;;;;;;;;;6097078;23;20149;-90
2024/01/03 04:57:07;;;;;;;0.30;0.30;;;;;;;;;;6098167;23;20149;-93
2024/01/03 05:00:13;;;;;;;0.30;0.30;;;;;;;;;;6096971;23;20178;-93
2024/01/03 05:03:20;;;;;;;0.30;0.30;;;;;;;;;;6096377;23;20161;-94
2024/01/03 05:06:26;;;;;;;0.30;0.30;;;;;;;;;;6096905;23;20264;-92
2024/01/03 05:09:34;;;;;;;0.30;0.30;;;;;;;;;;6096406;23;20197;-93
2024/01/03 05:12:41;;;;;;;0.30;0.30;;;;;;;;;;6113212;23;20165;-93
2024/01/03 05:15:46;;;;;;;0.30;0.30;;;;;;;;;;6095130;23;20175;-94
2024/01/03 05:18:51;;;;;;;0.30;0.30;;;;;;;;;;6094692;23;20580;-93
2024/01/03 05:21:58;;;;;;;0.22;0.22;;;;;;;;;;6095285;23;20210;-93
2024/01/03 05:25:03;;;;;;;0.30;0.30;;;;;;;;;;6092920;23;20195;-94
2024/01/03 05:28:10;;;;;;;0.55;0.47;;;;;;;;;;6111517;23;20177;-91
2024/01/03 05:31:14;;;;;;;0.30;0.30;;;;;;;;;;6096459;23;20181;-94
2024/01/03 05:34:20;;;;;;;0.30;0.30;;;;;;;;;;6096993;23;20218;-92
2024/01/03 05:37:25;;;;;;;0.20;0.20;;;;;;;;;;6112348;23;20618;-93
2024/01/03 05:40:30;;;;;;;0.22;0.22;;;;;;;;;;6094793;23;20187;-93
2024/01/03 05:43:42;;;;;;;0.20;0.20;;;;;;;;;;6096745;23;20158;-92
2024/01/03 05:46:47;;;;;;;0.30;0.30;;;;;;;;;;6113410;23;20178;-92
2024/01/03 05:49:52;;;;;;;0.30;0.30;;;;;;;;;;6095930;23;20686;-92
2024/01/03 05:53:02;;;;;;;0.30;0.30;;;;;;;;;;6098837;23;20213;-93
2024/01/03 05:56:09;;;;;;;0.40;0.40;;;;;;;;;;6095747;23;20219;-92
2024/01/03 05:59:16;;;;;;;0.22;0.22;;;;;;;;;;6096155;23;20157;-93
2024/01/03 06:02:22;;;;;;;0.25;0.25;;;;;;;;;;6097618;23;20387;-91
2024/01/03 06:05:27;;;;;;;0.30;0.30;;;;;;;;;;6096271;23;20242;-93
2024/01/03 06:08:32;;;;;;;1.40;0.60;;;;;;;;;;6096721;23;20247;-92
2024/01/03 06:11:37;;;;;;;1.25;0.40;;;;;;;;;;6096473;23;20170;-93
2024/01/03 06:14:44;;;;;;;1.38;0.98;;;;;;;;;;6095937;23;20509;-93
2024/01/03 06:17:49;;;;;;;0.70;0.50;;;;;;;;;;6095698;23;20169;-93
2024/01/03 06:20:54;;;;;;;2.53;1.05;;;;;;;;;;6096717;23;20179;-93
2024/01/03 06:23:59;;;;;;;8.68;2.72;;;;;;;;;;6094242;23;20170;-92
2024/01/03 06:27:05;;;;;;;5.63;2.10;;;;;;;;;;6111597;23;20178;-92
2024/01/03 06:30:13;;;;;;;2.63;0.70;;;;;;;;;;6091817;23;20201;-92
2024/01/03 06:33:18;;;;;;;1.13;0.60;;;;;;;;;;6094685;23;20177;-93
2024/01/03 06:36:23;;;;;;;0.60;0.40;;;;;;;;;;6097079;23;20206;-93
2024/01/03 06:39:29;;;;;;;1.10;0.82;;;;;;;;;;6094915;23;20220;-93
2024/01/03 06:42:34;;;;;;;0.90;0.60;;;;;;;;;;6111100;23;20166;-92
2024/01/03 06:45:41;;;;;;;2.97;0.60;;;;;;;;;;6094813;23;20157;-94
2024/01/03 06:48:50;;;;;;;1.63;0.50;;;;;;;;;;6112793;23;20237;-93
2024/01/03 06:51:58;;;;;;;1.55;0.50;;;;;;;;;;6095587;23;20187;-92
2024/01/03 06:55:03;;;;;;;1.85;0.90;;;;;;;;;;6095434;23;20181;-92
2024/01/03 06:58:08;;;;;;;3.10;0.60;;;;;;;;;;6093705;23;20226;-92
2024/01/03 07:01:17;;;;;;;2.15;0.57;;;;;;;;;;6099795;23;20210;-91
2024/01/03 07:04:22;;;;;;;0.57;0.50;;;;;;;;;;6081920;23;20170;-93
2024/01/03 07:07:29;;;;;;;1.15;0.70;;;;;;;;;;6082704;23;20167;-92
2024/01/03 07:10:34;;;;;;;2.60;1.00;;;;;;;;;;6081519;23;20209;-95
2024/01/03 07:13:40;;;;;;;3.88;1.40;;;;;;;;;;6081932;23;20219;-92
2024/01/03 07:16:46;;;;;;;9.68;2.60;;;;;;;;;;6083513;23;20158;-92
2024/01/03 07:19:51;;;;;;;2.50;0.70;;;;;;;;;;6082184;23;20169;-91
2024/01/03 07:22:56;;;;;;;3.10;0.80;;;;;;;;;;6082570;23;20174;-90
2024/01/03 07:26:01;;;;;;;1.02;0.70;;;;;;;;;;6083695;23;20167;-92
2024/01/03 07:29:07;;;;;;;1.55;0.65;;;;;;;;;;6081770;23;20661;-93
2024/01/03 07:32:14;;;;;;;1.55;0.70;;;;;;;;;;6082096;23;20158;-92
2024/01/03 07:35:19;;;;;;;0.80;0.50;;;;;;;;;;6081827;23;20167;-92
2024/01/03 07:38:25;;;;;;;0.90;0.55;;;;;;;;;;6080718;23;20158;-90
2024/01/03 07:41:31;;;;;;;2.88;0.70;;;;;;;;;;6065323;23;20171;-91
2024/01/03 07:44:41;;;;;;;1.90;0.93;;;;;;;;;;6082897;23;20187;-91
2024/01/03 07:47:48;;;;;;;0.95;0.60;;;;;;;;;;6084096;23;20162;-90
2024/01/03 07:50:53;;;;;;;0.57;0.50;;;;;;;;;;6082714;23;20226;-93
2024/01/03 07:53:59;;;;;;;2.28;0.50;;;;;;;;;;6084386;23;20163;-94
2024/01/03 07:57:04;;;;;;;0.50;0.50;;;;;;;;;;6083440;23;20174;-92
2024/01/03 08:00:11;;;;;;;1.55;0.60;;;;;;;;;;6083735;23;20175;-92
2024/01/03 08:03:18;;;;;;;4.63;0.90;;;;;;;;;;6081062;23;20264;-93
2024/01/03 08:06:24;;;;;;;2.40;0.98;;;;;;;;;;6081728;23;20176;-91
2024/01/03 08:09:32;;;;;;;2.22;0.70;;;;;;;;;;6079401;23;20199;-90
2024/01/03 08:12:38;;;;;;;1.33;0.60;;;;;;;;;;6078300;23;20174;-93
2024/01/03 08:15:43;;;;;;;1.02;0.60;;;;;;;;;;6081016;23;20162;-93
2024/01/03 08:18:50;;;;;;;1.52;0.70;;;;;;;;;;6081573;23;20186;-93
2024/01/03 08:21:56;;;;;;;1.23;0.50;;;;;;;;;;6081094;23;20179;-93
2024/01/03 08:25:01;;;;;;;0.85;0.50;;;;;;;;;;6081940;23;20162;-93
2024/01/03 08:28:07;;;;;;;1.10;0.70;;;;;;;;;;6083423;23;20169;-94
2024/01/03 08:31:16;;;;;;;0.85;0.50;;;;;;;;;;6083773;23;20182;-91
2024/01/03 08:37:44;;;;;;;0.52;0.50;;;;;;;;;;6084165;23;20187;-92
2024/01/03 08:40:49;;;;;;;1.38;0.90;;;;;;;;;;6085745;23;20683;-96
2024/01/03 08:43:55;;;;;;;1.92;0.75;;;;;;;;;;6083136;23;20250;-91
2024/01/03 08:47:04;;;;;;;2.33;0.82;;;;;;;;;;6084368;23;20166;-93
2024/01/03 08:50:11;;;;;;;1.23;0.70;;;;;;;;;;6082347;23;20281;-94
2024/01/03 08:53:16;;;;;;;1.95;0.90;;;;;;;;;;6082196;23;20211;-91
2024/01/03 08:56:22;;;;;;;1.90;1.10;;;;;;;;;;6079407;23;20234;-91
2024/01/03 08:59:27;;;;;;;4.55;1.05;;;;;;;;;;6080651;23;20167;-92
2024/01/03 09:02:32;;;;;;;2.13;0.63;;;;;;;;;;6094601;23;20190;-91
2024/01/03 09:05:43;;;;;;;4.30;0.90;;;;;;;;;;6096179;23;20226;-92
2024/01/03 09:08:50;;;;;;;2.50;0.82;;;;;;;;;;6093385;23;20270;-91
2024/01/03 09:11:56;;;;;;;1.63;0.68;;;;;;;;;;6111000;23;20164;-93
2024/01/03 09:15:16;;;;;;;1.23;0.57;;;;;;;;;;6096165;23;20153;-93
2024/01/03 09:18:21;;;;;;;2.05;0.98;;;;;;;;;;6096628;23;20245;-93
2024/01/03 09:21:28;;;;;;;0.50;0.50;;;;;;;;;;6094506;23;20186;-95
2024/01/03 09:24:33;;;;;;;3.22;0.68;;;;;;;;;;6092659;23;20165;-95
2024/01/03 09:27:38;;;;;;;3.78;0.88;;;;;;;;;;6092500;23;20210;-91
2024/01/03 09:30:44;;;;;;;1.58;0.70;;;;;;;;;;6092907;23;20205;-93
2024/01/03 09:33:49;;;;;;;2.47;0.70;;;;;;;;;;6095653;23;20180;-93
2024/01/03 09:36:57;;;;;;;3.13;0.85;;;;;;;;;;6094098;23;20182;-92
2024/01/03 09:40:03;;;;;;;1.25;0.70;;;;;;;;;;6096197;23;20178;-91
2024/01/03 09:43:08;;;;;;;2.10;0.93;;;;;;;;;;6095140;23;20290;-92
2024/01/03 09:46:14;;;;;;;0.90;0.60;;;;;;;;;;6094759;23;20158;-93
2024/01/03 09:49:19;;;;;;;2.17;0.90;;;;;;;;;;6093578;23;20166;-92
2024/01/03 09:52:28;;;;;;;3.40;0.70;;;;;;;;;;6095343;23;20257;-93
2024/01/03 09:55:34;;;;;;;1.50;0.70;;;;;;;;;;6096738;23;20174;-94
2024/01/03 09:58:41;;;;;;;2.08;1.00;;;;;;;;;;6095000;23;20249;-92
2024/01/03 10:01:55;;;;;;;2.25;1.02;;;;;;;;;;6096362;23;20241;-93
2024/01/03 10:05:00;;;;;;;2.45;0.90;;;;;;;;;;6096701;23;20211;-92
2024/01/03 10:08:17;;;;;;;2.10;0.90;;;;;;;;;;6096709;23;20298;-94
2024/01/03 10:11:22;;;;;;;1.02;0.57;;;;;;;;;;6096204;23;20197;-92
2024/01/03 10:14:28;;;;;;;3.30;0.90;;;;;;;;;;6093926;23;20600;-90
2024/01/03 10:17:34;;;;;;;2.67;0.75;;;;;;;;;;6094812;23;20194;-91
2024/01/03 10:20:39;;;;;;;2.28;0.80;;;;;;;;;;6095161;23;20165;-90
2024/01/03 10:23:46;;;;;;;2.30;0.77;;;;;;;;;;6096044;23;20614;-94
2024/01/03 10:26:51;;;;;;;2.58;0.93;;;;;;;;;;6094513;23;20181;-92
2024/01/03 10:30:14;;;;;;;2.65;0.60;;;;;;;;;;6095698;23;20224;-93
2024/01/03 10:33:20;;;;;;;2.75;0.70;;;;;;;;;;6094958;23;20244;-90
2024/01/03 10:36:26;;;;;;;1.95;0.70;;;;;;;;;;6095304;23;20291;-90
2024/01/03 10:39:33;;;;;;;3.97;0.95;;;;;;;;;;6095507;23;20174;-92
2024/01/03 10:42:39;;;;;;;3.22;0.98;;;;;;;;;;6096759;23;20245;-92
2024/01/03 10:45:46;;;;;;;4.60;1.00;;;;;;;;;;6095262;23;20215;-92
2024/01/03 10:48:52;;;;;;;3.88;0.70;;;;;;;;;;6096679;23;20154;-89
2024/01/03 10:52:03;;;;;;;4.70;0.80;;;;;;;;;;6093403;23;20174;-93
2024/01/03 10:55:11;;;;;;;5.03;1.00;;;;;;;;;;6097504;23;20174;-93
2024/01/03 10:58:23;;;;;;;2.97;1.00;;;;;;;;;;6095864;23;20238;-93
2024/01/03 11:01:30;;;;;;;3.53;0.90;;;;;;;;;;6098053;23;20200;-91
2024/01/03 11:04:42;;;;;;;5.45;1.08;;;;;;;;;;6097247;23;20169;-91
2024/01/03 11:07:53;;;;;;;7.30;1.35;;;;;;;;;;6097373;23;20194;-92
2024/01/03 11:11:01;;;;;;;2.63;0.80;;;;;;;;;;6098316;23;20322;-92
2024/01/03 11:14:23;;;;;;;2.75;0.90;;;;;;;;;;6096651;23;20170;-92
2024/01/03 11:17:35;;;;;;;5.93;1.30;;;;;;;;;;6097365;23;20228;-94
2024/01/03 11:20:42;;;;;;;2.53;0.80;;;;;;;;;;6096013;23;20177;-91
2024/01/03 11:23:47;;;;;;;2.20;0.80;;;;;;;;;;6097169;23;20209;-93
2024/01/03 11:27:07;;;;;;;2.40;0.68;;;;;;;;;;6097227;23;20218;-93
2024/01/03 11:30:37;;;;;;;1.70;0.73;;;;;;;;;;6098264;23;20514;-90
2024/01/03 11:33:45;;;;;;;3.13;0.65;;;;;;;;;;6097700;23;20677;-91
2024/01/03 11:36:53;;;;;;;1.85;0.82;;;;;;;;;;6098901;23;20180;-90
2024/01/03 11:39:59;;;;;;;3.42;0.75;;;;;;;;;;6095502;23;20241;-92
2024/01/03 11:43:07;;;;;;;2.70;1.00;;;;;;;;;;6093254;23;20174;-93
2024/01/03 11:46:15;;;;;;;5.00;0.93;;;;;;;;;;6094768;23;20173;-92
2024/01/03 11:49:22;;;;;;;4.20;0.70;;;;;;;;;;6094212;23;20613;-92
2024/01/03 11:52:28;;;;;;;4.20;1.00;;;;;;;;;;6096196;23;20231;-90
2024/01/03 11:55:33;;;;;;;2.65;1.10;;;;;;;;;;6096226;23;20169;-94
2024/01/03 11:58:40;;;;;;;1.23;0.70;;;;;;;;;;6099488;23;20169;-94
2024/01/03 12:01:56;;;;;;;3.58;0.88;;;;;;;;;;6116126;23;20237;-91
2024/01/03 12:05:03;;;;;;;2.25;0.80;;;;;;;;;;6100462;23;20166;-93
2024/01/03 12:08:08;;;;;;;4.30;1.00;;;;;;;;;;6101346;23;20174;-91
2024/01/03 12:11:14;;;;;;;3.00;0.70;;;;;;;;;;6099560;23;20214;-92
2024/01/03 12:14:21;;;;;;;1.50;0.70;;;;;;;;;;6097385;23;20217;-94
2024/01/03 12:17:30;;;;;;;2.33;0.77;;;;;;;;;;6095915;23;20174;-90
2024/01/03 12:20:36;;;;;;;1.17;0.70;;;;;;;;;;6095366;23;20177;-93
2024/01/03 12:23:41;;;;;;;3.13;0.68;;;;;;;;;;6096596;23;20162;-92
2024/01/03 12:26:49;;;;;;;1.45;0.50;;;;;;;;;;6099179;23;20248;-93
2024/01/03 12:30:09;;;;;;;3.10;0.70;;;;;;;;;;6097003;23;20174;-93
2024/01/03 12:33:17;;;;;;;2.70;0.90;;;;;;;;;;6095150;23;20223;-93
2024/01/03 12:36:24;;;;;;;2.78;0.80;;;;;;;;;;6099983;23;20177;-91
2024/01/03 12:39:36;;;;;;;2.80;0.90;;;;;;;;;;6099700;23;20170;-93
2024/01/03 12:42:42;;;;;;;2.97;0.88;;;;;;;;;;6096949;23;20174;-91
2024/01/03 12:45:48;;;;;;;2.78;0.90;;;;;;;;;;6096184;23;20224;-91
2024/01/03 12:48:57;;;;;;;2.63;0.82;;;;;;;;;;6096843;23;20165;-91
2024/01/03 12:52:05;;;;;;;4.10;1.00;;;;;;;;;;6096794;23;20198;-92
2024/01/03 12:55:12;;;;;;;3.67;0.82;;;;;;;;;;6097634;23;20299;-91
2024/01/03 12:58:17;;;;;;;1.17;0.70;;;;;;;;;;6100353;23;20214;-93
2024/01/03 13:01:23;;;;;;;5.05;1.20;;;;;;;;;;6098816;23;20269;-89
2024/01/03 13:04:31;;;;;;;8.77;2.55;;;;;;;;;;6096918;23;20169;-94
2024/01/03 13:07:47;;;;;;;24.83;7.68;;;;;;;;;;6097847;23;20218;-90
2024/01/03 13:10:54;;;;;;;3.03;1.00;;;;;;;;;;6114311;23;20326;-91
2024/01/03 13:14:03;;;;;;;2.47;0.80;;;;;;;;;;6080886;23;20166;-91
2024/01/03 13:17:09;;;;;;;4.80;1.00;;;;;;;;;;6095925;23;20173;-91
2024/01/03 13:20:17;;;;;;;3.30;1.05;;;;;;;;;;6097087;23;20170;-91
2024/01/03 13:23:22;;;;;;;2.83;1.00;;;;;;;;;;6096741;23;20215;-94
2024/01/03 13:26:28;;;;;;;2.97;1.00;;;;;;;;;;6094788;23;20194;-92
2024/01/03 13:29:33;;;;;;;4.63;0.90;;;;;;;;;;6096638;23;20250;-92
2024/01/03 13:32:41;;;;;;;3.95;1.02;;;;;;;;;;6095391;23;20279;-91
2024/01/03 13:35:49;;;;;;;4.85;0.77;;;;;;;;;;6097787;23;20214;-93
2024/01/03 13:38:54;;;;;;;3.67;1.02;;;;;;;;;;6097563;23;20226;-92
2024/01/03 13:42:05;;;;;;;2.55;0.82;;;;;;;;;;6095962;23;20170;-93
2024/01/03 13:45:14;;;;;;;5.18;1.23;;;;;;;;;;6095271;23;20602;-92
2024/01/03 13:48:21;;;;;;;3.67;1.27;;;;;;;;;;6095746;23;20231;-93
2024/01/03 13:51:29;;;;;;;3.85;0.90;;;;;;;;;;6096905;23;20197;-93
2024/01/03 13:54:35;;;;;;;4.85;0.95;;;;;;;;;;6095891;23;20222;-90
2024/01/03 13:57:40;;;;;;;2.22;0.80;;;;;;;;;;6093790;23;20166;-92
2024/01/03 14:00:46;;;;;;;4.05;1.10;;;;;;;;;;6096053;23;20182;-91
2024/01/03 14:03:52;;;;;;;3.35;1.10;;;;;;;;;;6093317;23;20210;-93
2024/01/03 14:06:59;;;;;;;4.95;1.13;;;;;;;;;;6095732;23;20205;-94
2024/01/03 14:10:05;;;;;;;2.63;0.93;;;;;;;;;;6093365;23;20282;-91
2024/01/03 14:13:10;;;;;;;4.85;1.30;;;;;;;;;;6094129;23;20194;-92
2024/01/03 14:16:15;;;;;;;4.93;1.77;;;;;;;;;;6094042;23;20266;-93
2024/01/03 14:19:21;;;;;;;4.35;1.20;;;;;;;;;;6094078;23;20178;-90
2024/01/03 14:22:28;;;;;;;1.42;0.70;;;;;;;;;;6095226;23;20174;-91
2024/01/03 14:25:33;;;;;;;1.48;0.90;;;;;;;;;;6095420;23;20170;-90
2024/01/03 14:28:39;;;;;;;2.55;0.77;;;;;;;;;;6095035;23;20174;-92
2024/01/03 14:31:44;;;;;;;3.65;0.95;;;;;;;;;;6095789;23;20216;-91
2024/01/03 14:34:50;;;;;;;3.42;0.80;;;;;;;;;;6093459;23;20166;-94
2024/01/03 14:37:57;;;;;;;4.00;0.70;;;;;;;;;;6093567;23;20170;-90
2024/01/03 14:41:02;;;;;;;4.47;0.85;;;;;;;;;;6092853;23;20170;-92
2024/01/03 14:44:09;;;;;;;2.20;0.75;;;;;;;;;;6108603;23;20174;-91
2024/01/03 14:47:15;;;;;;;1.67;0.70;;;;;;;;;;6093544;23;20178;-93
2024/01/03 14:50:20;;;;;;;2.42;0.90;;;;;;;;;;6093519;23;20165;-91
2024/01/03 14:53:27;;;;;;;2.17;1.00;;;;;;;;;;6093727;23;20621;-93
2024/01/03 14:56:33;;;;;;;4.43;0.80;;;;;;;;;;6094462;23;20177;-94
2024/01/03 14:59:39;;;;;;;3.00;0.80;;;;;;;;;;6093933;23;20169;-93
2024/01/03 15:02:46;;;;;;;3.22;1.00;;;;;;;;;;6091461;23;20395;-92
2024/01/03 15:05:52;;;;;;;1.70;0.80;;;;;;;;;;6093962;23;20187;-94
2024/01/03 15:08:58;;;;;;;3.85;0.90;;;;;;;;;;6091975;23;20641;-92
2024/01/03 15:12:05;;;;;;;2.92;0.80;;;;;;;;;;6093689;23;20205;-94
2024/01/03 15:15:11;;;;;;;3.80;1.10;;;;;;;;;;6093846;23;20626;-94
2024/01/03 15:18:18;;;;;;;2.13;0.80;;;;;;;;;;6091435;23;20181;-92
2024/01/03 15:21:23;;;;;;;5.00;1.00;;;;;;;;;;6094859;23;20173;-93
2024/01/03 15:24:30;;;;;;;7.82;1.33;;;;;;;;;;6096656;23;20245;-92
2024/01/03 15:27:35;;;;;;;4.82;1.48;;;;;;;;;;6095717;23;20177;-90
2024/01/03 15:30:41;;;;;;;2.75;1.40;;;;;;;;;;6098670;23;20173;-92
2024/01/03 15:33:47;;;;;;;5.82;1.50;;;;;;;;;;6095388;23;20190;-93
2024/01/03 15:36:52;;;;;;;5.03;1.10;;;;;;;;;;6095896;23;20182;-93
2024/01/03 15:44:14;;;;;;;6.07;1.17;;;;;;;;;;6113984;23;20166;-93
2024/01/03 15:47:28;;;;;;;2.60;1.00;;;;;;;;;;6110329;23;20178;-93
2024/01/03 15:50:38;;;;;;;4.90;1.52;;;;;;;;;;6112112;23;20174;-91
2024/01/03 15:54:11;;;;;;;4.55;1.15;;;;;;;;;;6095639;23;20203;-95
2024/01/03 15:57:34;;;;;;;3.47;1.05;;;;;;;;;;6093476;23;20170;-90
2024/01/03 16:00:44;;;;;;;6.80;1.20;;;;;;;;;;6111390;23;20576;-91
2024/01/03 16:03:50;;;;;;;3.92;1.10;;;;;;;;;;6098045;23;20249;-90
2024/01/03 16:06:55;;;;;;;2.72;0.98;;;;;;;;;;6095162;23;20214;-91
2024/01/03 16:10:01;;;;;;;1.73;0.80;;;;;;;;;;6102190;23;20195;-90
2024/01/03 16:13:07;;;;;;;4.85;1.10;;;;;;;;;;6097791;23;20197;-92
2024/01/03 16:16:16;;;;;;;6.20;1.80;;;;;;;;;;6097965;23;20191;-93
2024/01/03 16:19:21;;;;;;;3.92;1.85;;;;;;;;;;6097215;23;20242;-92
2024/01/03 16:22:31;;;;;;;7.28;1.42;;;;;;;;;;6098183;23;20514;-89
2024/01/03 16:25:37;;;;;;;6.68;1.50;;;;;;;;;;6097741;23;20162;-91
2024/01/03 16:28:49;;;;;;;3.28;1.20;;;;;;;;;;6097752;23;20166;-94
2024/01/03 16:31:58;;;;;;;3.53;1.52;;;;;;;;;;6096658;23;20269;-92
2024/01/03 16:35:04;;;;;;;4.72;1.40;;;;;;;;;;6095658;23;20174;-92
2024/01/03 16:38:11;;;;;;;4.25;1.48;;;;;;;;;;6095714;23;20198;-92
2024/01/03 16:41:18;;;;;;;7.10;2.58;;;;;;;;;;6095596;23;20245;-92
2024/01/03 16:44:24;;;;;;;7.38;2.70;;;;;;;;;;6114748;23;20274;-90
2024/01/03 16:47:54;;;;;;;6.65;2.30;;;;;;;;;;6096998;23;20173;-90
2024/01/03 21:49:40;;;;;;;3.60;1.23;;;;;;;;;;6145887;22;1592975;-93
2024/01/03 21:52:53;;;;;;;1.13;0.80;;;;;;;;;;6199784;23;20215;-91
2024/01/03 21:56:01;;;;;;;3.17;0.80;;;;;;;;;;6199263;23;20192;-92
2024/01/03 21:59:09;;;;;;;2.58;0.93;;;;;;;;;;6199784;23;20180;-91
2024/01/03 22:02:15;;;;;;;6.13;0.88;;;;;;;;;;6201850;23;20171;-92
2024/01/03 22:05:24;;;;;;;2.67;0.70;;;;;;;;;;6201990;23;20168;-92
2024/01/03 22:08:30;;;;;;;1.77;0.70;;;;;;;;;;6201077;23;20216;-92
2024/01/03 22:11:35;;;;;;;0.93;0.50;;;;;;;;;;6200749;23;20164;-90
2024/01/03 22:14:45;;;;;;;0.63;0.40;;;;;;;;;;6202179;23;20180;-92
2024/01/03 22:17:51;;;;;;;1.33;0.60;;;;;;;;;;6201857;23;20213;-93
2024/01/03 22:20:57;;;;;;;1.10;0.70;;;;;;;;;;6202019;23;20184;-91
2024/01/03 22:24:02;;;;;;;1.70;0.60;;;;;;;;;;6202748;23;20232;-91
2024/01/03 22:27:09;;;;;;;0.90;0.60;;;;;;;;;;6202605;23;20221;-91
2024/01/03 23:31:33;;;;;;;1.27;0.55;;;;;;;;;;6184849;22;20253;-90
2024/01/03 23:34:39;;;;;;;2.22;0.63;;;;;;;;;;6199830;23;20168;-93
2024/01/03 23:37:44;;;;;;;0.85;0.50;;;;;;;;;;6201767;23;20172;-93
2024/01/03 23:40:49;;;;;;;1.45;0.50;;;;;;;;;;6201877;23;20172;-92
2024/01/03 23:43:55;;;;;;;1.75;0.50;;;;;;;;;;6202584;23;20180;-92
2024/01/03 23:47:04;;;;;;;3.47;0.68;;;;;;;;;;6201105;23;20171;-91
2024/01/03 23:50:10;;;;;;;0.90;0.50;;;;;;;;;;6202362;23;20199;-92
2024/01/03 23:53:17;;;;;;;1.67;0.60;;;;;;;;;;6165825;23;20220;-91
2024/01/03 23:56:23;;;;;;;1.05;0.45;;;;;;;;;;6145548;23;20205;-93
2024/01/03 23:59:29;;;;;;;1.23;0.70;;;;;;;;;;6145157;23;20169;-92
